Time;durP1;ratioP1;P1;durP2;ratioP2;P2;SDS_P1;SDS_P2;PMS_P1;PMS_P2;Temp;Humidity;BMP_temperature;BMP_pressure;BME280_temperature;BME280_humidity;BME280_pressure;Samples;Min_cycle;Max_cycle;Signal;HPM_P1;HPM_P2
2021/10/31 00:00:53;;;;;;;14.38;10.82;;;7.50;99.90;;;;;;5032684;28;20458;-74
2021/10/31 00:03:20;;;;;;;13.32;10.68;;;7.60;99.90;;;;;;5031395;28;20096;-74
2021/10/31 00:05:54;;;;;;;13.40;9.98;;;7.70;99.90;;;;;;5034476;28;20128;-73
2021/10/31 00:08:22;;;;;;;9.88;8.40;;;7.80;99.90;;;;;;5032134;28;20045;-73
2021/10/31 00:10:49;;;;;;;11.52;9.50;;;7.90;99.90;;;;;;5033688;28;20042;-73
2021/10/31 00:13:23;;;;;;;12.65;10.18;;;8.00;99.90;;;;;;5032675;28;20045;-73
2021/10/31 00:15:55;;;;;;;13.73;10.25;;;8.10;99.90;;;;;;5032309;28;20040;-73
2021/10/31 00:18:25;;;;;;;12.02;9.50;;;8.10;99.90;;;;;;5033493;28;20492;-73
2021/10/31 00:20:53;;;;;;;19.58;15.20;;;8.20;99.90;;;;;;5032295;28;20045;-73
2021/10/31 00:23:27;;;;;;;20.27;16.00;;;8.20;99.90;;;;;;5032126;28;20103;-73
2021/10/31 00:26:03;;;;;;;20.40;15.07;;;8.10;99.90;;;;;;5032128;28;20042;-73
2021/10/31 00:28:35;;;;;;;18.77;16.02;;;8.10;99.90;;;;;;5033415;28;20049;-73
2021/10/31 00:31:03;;;;;;;17.88;15.02;;;8.00;99.90;;;;;;5032124;28;20048;-73
2021/10/31 00:33:31;;;;;;;20.23;15.80;;;8.00;99.90;;;;;;5033219;28;20037;-73
2021/10/31 00:35:58;;;;;;;16.90;14.25;;;7.90;99.90;;;;;;5048280;28;20045;-73
2021/10/31 00:38:25;;;;;;;18.77;14.43;;;7.90;99.90;;;;;;5032011;28;20119;-73
2021/10/31 00:40:52;;;;;;;15.10;12.02;;;7.90;99.90;;;;;;5032277;28;20388;-73
2021/10/31 00:43:20;;;;;;;15.52;12.07;;;8.00;99.90;;;;;;5031800;28;20423;-73
2021/10/31 00:45:54;;;;;;;15.65;13.23;;;8.00;99.90;;;;;;5031517;28;20565;-73
2021/10/31 00:48:20;;;;;;;15.40;13.75;;;8.00;99.90;;;;;;5048396;28;20050;-73
2021/10/31 00:50:54;;;;;;;16.48;13.63;;;8.00;99.90;;;;;;5031890;28;20045;-73
2021/10/31 00:53:29;;;;;;;17.05;13.82;;;8.00;99.90;;;;;;5031547;28;20413;-72
2021/10/31 00:56:04;;;;;;;17.92;14.77;;;8.00;99.90;;;;;;5032618;28;20038;-73
2021/10/31 00:58:37;;;;;;;18.03;15.53;;;8.00;99.90;;;;;;5032959;28;20566;-73
2021/10/31 01:01:04;;;;;;;21.67;17.02;;;8.00;99.90;;;;;;5031579;28;20049;-73
2021/10/31 01:03:32;;;;;;;20.73;16.52;;;8.00;99.90;;;;;;5032631;28;20045;-73
2021/10/31 01:06:37;;;;;;;27.08;17.80;;;8.00;99.90;;;;;;5031297;28;20466;-73
2021/10/31 01:09:20;;;;;;;20.50;17.48;;;7.90;99.90;;;;;;5032594;28;20538;-73
2021/10/31 01:12:17;;;;;;;21.13;16.40;;;7.90;99.90;;;;;;5032210;28;20041;-73
2021/10/31 01:15:17;;;;;;;20.15;16.10;;;7.90;99.90;;;;;;5029819;28;20424;-73
2021/10/31 01:18:08;;;;;;;20.77;16.08;;;7.90;99.90;;;;;;5031397;28;20041;-73
2021/10/31 01:21:14;;;;;;;22.88;16.10;;;7.90;99.90;;;;;;5025937;28;20523;-73
2021/10/31 01:24:27;;;;;;;19.15;15.95;;;7.90;99.90;;;;;;5047594;28;20554;-73
2021/10/31 01:27:14;;;;;;;18.52;15.07;;;7.90;99.90;;;;;;5031121;28;20059;-73
2021/10/31 01:30:11;;;;;;;19.35;16.20;;;7.80;99.90;;;;;;4988062;28;20531;-73
2021/10/31 01:32:41;;;;;;;19.02;16.08;;;7.80;99.90;;;;;;5004232;28;20937;-73
2021/10/31 01:35:49;;;;;;;18.40;15.93;;;7.80;99.90;;;;;;5030532;28;20041;-73
2021/10/31 01:38:43;;;;;;;16.70;14.50;;;7.80;99.90;;;;;;5032076;28;20041;-73
2021/10/31 01:41:39;;;;;;;20.50;15.75;;;7.80;99.90;;;;;;5030760;28;20042;-73
2021/10/31 01:44:31;;;;;;;19.00;15.48;;;7.80;99.90;;;;;;5030610;28;20052;-73
2021/10/31 01:47:28;;;;;;;18.30;14.63;;;7.80;99.90;;;;;;5031320;28;20050;-73
2021/10/31 01:50:07;;;;;;;18.23;13.77;;;7.80;99.90;;;;;;5030601;28;20072;-73
2021/10/31 01:52:46;;;;;;;18.05;14.27;;;7.70;99.90;;;;;;5030651;28;20503;-73
2021/10/31 01:55:21;;;;;;;20.17;12.38;;;7.70;99.90;;;;;;5046785;28;20049;-73
2021/10/31 01:57:56;;;;;;;15.07;11.93;;;7.80;99.90;;;;;;5030586;28;20049;-73
2021/10/31 02:00:34;;;;;;;18.77;12.40;;;7.80;99.90;;;;;;5030151;28;20037;-73
2021/10/31 02:03:09;;;;;;;16.48;11.25;;;7.80;99.90;;;;;;5029864;28;20045;-73
2021/10/31 02:05:44;;;;;;;16.38;11.32;;;7.80;99.90;;;;;;5030695;28;20041;-73
2021/10/31 02:08:22;;;;;;;12.32;10.25;;;7.80;99.90;;;;;;5029892;28;20048;-72
2021/10/31 02:10:52;;;;;;;12.02;9.70;;;7.80;99.90;;;;;;5029838;28;20055;-73
2021/10/31 02:13:25;;;;;;;10.70;9.13;;;7.80;99.90;;;;;;5031118;28;20045;-73
2021/10/31 02:15:56;;;;;;;12.38;9.65;;;7.80;99.90;;;;;;5029399;28;20068;-73
2021/10/31 02:18:30;;;;;;;11.40;8.50;;;7.80;99.90;;;;;;5029737;28;20045;-73
2021/10/31 02:20:59;;;;;;;13.30;11.07;;;7.80;99.90;;;;;;5029750;28;20411;-73
2021/10/31 02:23:28;;;;;;;10.60;9.40;;;7.80;99.90;;;;;;5029704;28;20049;-73
2021/10/31 02:25:56;;;;;;;12.65;10.23;;;7.80;99.90;;;;;;5030181;28;20052;-73
2021/10/31 02:28:23;;;;;;;14.48;10.38;;;7.80;99.90;;;;;;5030190;28;20046;-73
2021/10/31 02:30:56;;;;;;;14.93;11.98;;;7.70;99.90;;;;;;5014260;28;20048;-73
2021/10/31 02:33:28;;;;;;;14.68;12.80;;;7.70;99.90;;;;;;5030225;28;20038;-73
2021/10/31 02:36:03;;;;;;;15.18;11.95;;;7.60;99.90;;;;;;5029927;28;20488;-73
2021/10/31 02:38:30;;;;;;;16.40;12.65;;;7.60;99.90;;;;;;5029693;28;20296;-73
2021/10/31 02:41:03;;;;;;;16.75;13.30;;;7.60;99.90;;;;;;5029538;28;20045;-73
2021/10/31 02:43:32;;;;;;;15.63;12.68;;;7.60;99.90;;;;;;5029599;28;20492;-73
2021/10/31 02:46:04;;;;;;;14.98;12.20;;;7.50;99.90;;;;;;5013368;28;20115;-73
2021/10/31 02:48:35;;;;;;;16.52;12.40;;;7.50;99.90;;;;;;5029644;28;20045;-72
2021/10/31 02:51:14;;;;;;;15.65;12.65;;;7.50;99.90;;;;;;5029588;28;20045;-73
2021/10/31 02:53:48;;;;;;;16.52;13.20;;;7.50;99.90;;;;;;5029847;28;20041;-73
2021/10/31 02:56:39;;;;;;;17.27;13.65;;;7.40;99.90;;;;;;5029670;28;20037;-73
2021/10/31 02:59:20;;;;;;;17.25;12.15;;;7.40;99.90;;;;;;5029902;28;20385;-73
2021/10/31 03:01:49;;;;;;;15.15;12.25;;;7.40;99.90;;;;;;5030755;28;20057;-73
2021/10/31 03:04:17;;;;;;;13.10;11.23;;;7.30;99.90;;;;;;5030802;28;20048;-73
2021/10/31 03:06:45;;;;;;;14.07;9.70;;;7.20;99.90;;;;;;5031177;28;20103;-73
2021/10/31 03:09:12;;;;;;;12.00;9.60;;;7.20;99.90;;;;;;5029969;28;20061;-73
2021/10/31 03:11:40;;;;;;;9.82;8.77;;;7.20;99.90;;;;;;5029569;28;20056;-73
2021/10/31 03:14:15;;;;;;;11.23;7.25;;;7.10;99.90;;;;;;5029471;28;20111;-73
2021/10/31 03:16:42;;;;;;;9.00;7.53;;;7.10;99.90;;;;;;5013336;28;20076;-73
2021/10/31 03:19:16;;;;;;;10.63;8.02;;;7.00;99.90;;;;;;5029849;28;20046;-73
2021/10/31 03:21:50;;;;;;;7.07;6.07;;;7.00;99.90;;;;;;5029619;28;20111;-73
2021/10/31 03:24:22;;;;;;;6.63;5.47;;;7.00;99.90;;;;;;5029399;28;20053;-73
2021/10/31 03:26:58;;;;;;;6.75;5.82;;;6.90;99.90;;;;;;5030614;28;20057;-73
2021/10/31 03:29:31;;;;;;;8.52;6.20;;;6.80;99.90;;;;;;5029776;28;20496;-73
2021/10/31 03:32:03;;;;;;;7.97;6.38;;;6.80;99.90;;;;;;5029608;28;20415;-73
2021/10/31 03:34:30;;;;;;;7.13;6.05;;;6.80;99.90;;;;;;5030564;28;20427;-73
2021/10/31 03:37:02;;;;;;;7.60;6.18;;;6.80;99.90;;;;;;5030083;28;20075;-72
2021/10/31 03:39:36;;;;;;;7.47;5.80;;;6.80;99.90;;;;;;5034288;28;20538;-73
2021/10/31 03:42:05;;;;;;;6.70;5.32;;;6.80;99.90;;;;;;5034230;28;20041;-73
2021/10/31 03:44:47;;;;;;;7.18;5.78;;;6.80;99.90;;;;;;5032576;28;20108;-73
2021/10/31 03:47:23;;;;;;;8.65;5.82;;;6.80;99.90;;;;;;5032868;28;20458;-73
2021/10/31 03:49:50;;;;;;;7.85;6.35;;;6.80;99.90;;;;;;5034110;28;20052;-73
2021/10/31 03:52:18;;;;;;;7.88;5.60;;;6.70;99.90;;;;;;5016474;28;20052;-73
2021/10/31 03:54:50;;;;;;;9.30;6.15;;;6.80;99.90;;;;;;5034027;28;20112;-73
2021/10/31 03:57:21;;;;;;;8.35;5.50;;;6.70;99.90;;;;;;5017038;28;20053;-73
2021/10/31 03:59:48;;;;;;;6.07;5.45;;;6.70;99.90;;;;;;5032621;28;20045;-73
2021/10/31 04:02:15;;;;;;;6.07;5.18;;;6.70;99.90;;;;;;5032670;28;20053;-73
2021/10/31 04:04:48;;;;;;;8.63;5.55;;;6.70;99.90;;;;;;5016805;28;20056;-73
2021/10/31 04:07:19;;;;;;;6.60;5.43;;;6.70;99.90;;;;;;5034049;28;20041;-73
2021/10/31 04:09:48;;;;;;;9.13;7.13;;;6.70;99.90;;;;;;5032591;28;20046;-73
2021/10/31 04:12:21;;;;;;;19.00;11.02;;;6.60;99.90;;;;;;5032378;28;20049;-73
2021/10/31 04:14:53;;;;;;;630.88;330.58;;;6.60;99.90;;;;;;5032197;28;20546;-73
2021/10/31 04:17:20;;;;;;;65.25;37.40;;;6.60;99.90;;;;;;5032437;28;20099;-73
2021/10/31 04:19:49;;;;;;;55.92;30.45;;;6.50;99.90;;;;;;5032366;28;20103;-73
2021/10/31 04:22:18;;;;;;;37.15;21.50;;;6.50;99.90;;;;;;5032475;28;20049;-73
2021/10/31 04:24:49;;;;;;;34.17;17.58;;;6.50;99.90;;;;;;5031917;28;20111;-73
2021/10/31 04:27:21;;;;;;;43.17;21.90;;;6.40;99.90;;;;;;5016427;28;20132;-73
2021/10/31 04:29:48;;;;;;;14.00;8.40;;;6.40;99.90;;;;;;5031375;28;20434;-73
2021/10/31 04:32:20;;;;;;;16.23;8.52;;;6.40;99.90;;;;;;5016276;28;20044;-73
2021/10/31 04:34:55;;;;;;;15.45;9.00;;;6.30;99.90;;;;;;5032086;28;20045;-73
2021/10/31 04:37:28;;;;;;;14.25;8.48;;;6.30;99.90;;;;;;5032159;28;20037;-73
2021/10/31 04:40:03;;;;;;;6.90;5.55;;;6.30;99.90;;;;;;5031895;28;20050;-73
2021/10/31 04:42:34;;;;;;;6.90;5.45;;;6.20;99.90;;;;;;5031752;28;20053;-73
2021/10/31 04:45:03;;;;;;;7.35;5.30;;;6.20;99.90;;;;;;5031784;28;20057;-73
2021/10/31 04:47:32;;;;;;;7.10;5.57;;;6.20;99.90;;;;;;5032479;28;20064;-73
2021/10/31 04:50:05;;;;;;;7.20;5.93;;;6.20;99.90;;;;;;5031667;28;20055;-72
2021/10/31 04:52:42;;;;;;;8.05;5.93;;;6.10;99.90;;;;;;5032817;28;20492;-73
2021/10/31 04:55:15;;;;;;;7.63;6.45;;;6.20;99.90;;;;;;5035974;28;20051;-72
2021/10/31 04:57:46;;;;;;;7.80;5.85;;;6.10;99.90;;;;;;5044257;28;20041;-73
2021/10/31 05:00:14;;;;;;;7.53;5.32;;;6.10;99.90;;;;;;5046204;28;20047;-73
2021/10/31 05:02:41;;;;;;;7.45;5.70;;;6.10;99.90;;;;;;5051954;28;20036;-73
2021/10/31 05:05:08;;;;;;;6.50;5.68;;;6.00;99.90;;;;;;5050543;28;20044;-73
2021/10/31 05:07:35;;;;;;;10.70;6.63;;;6.00;99.90;;;;;;5050921;28;20542;-73
2021/10/31 05:10:07;;;;;;;9.85;6.47;;;6.00;99.90;;;;;;5035223;28;20057;-73
2021/10/31 05:12:34;;;;;;;14.68;9.48;;;6.10;99.90;;;;;;5050708;28;20439;-73
2021/10/31 05:15:08;;;;;;;13.88;10.05;;;6.10;99.90;;;;;;5034429;28;20052;-73
2021/10/31 05:17:35;;;;;;;14.63;9.95;;;6.10;99.90;;;;;;5050728;28;20045;-73
2021/10/31 05:20:03;;;;;;;12.13;9.57;;;6.20;99.90;;;;;;5050384;28;20048;-73
2021/10/31 05:22:39;;;;;;;10.50;8.70;;;6.20;99.90;;;;;;5034454;28;20057;-73
2021/10/31 05:25:07;;;;;;;10.57;8.27;;;6.20;99.90;;;;;;5050103;28;20533;-73
2021/10/31 05:27:35;;;;;;;11.77;8.63;;;6.20;99.90;;;;;;5050442;28;20412;-73
2021/10/31 05:30:04;;;;;;;14.40;10.73;;;6.20;99.90;;;;;;5050343;28;20056;-73
2021/10/31 05:32:35;;;;;;;13.50;10.65;;;6.10;99.90;;;;;;5050341;28;20159;-73
2021/10/31 05:35:11;;;;;;;13.88;9.27;;;6.10;99.90;;;;;;5050060;28;20388;-73
2021/10/31 05:37:45;;;;;;;15.15;9.90;;;6.10;99.90;;;;;;5050482;28;20048;-73
2021/10/31 05:40:17;;;;;;;18.90;11.10;;;6.00;99.90;;;;;;5051776;28;20072;-73
2021/10/31 05:42:49;;;;;;;13.77;11.30;;;6.00;99.90;;;;;;5051324;28;20518;-73
2021/10/31 05:45:16;;;;;;;16.98;12.80;;;5.90;99.90;;;;;;5049984;28;20132;-73
2021/10/31 05:47:44;;;;;;;17.40;14.68;;;5.70;99.90;;;;;;5050391;28;20060;-73
2021/10/31 05:50:16;;;;;;;16.33;12.65;;;5.70;99.90;;;;;;5051442;28;20534;-73
2021/10/31 05:52:45;;;;;;;14.63;12.85;;;5.60;99.90;;;;;;5050012;28;20044;-73
2021/10/31 05:55:17;;;;;;;;;;;5.60;99.90;;;;;;5050321;28;20041;-73
2021/10/31 05:57:49;;;;;;;17.90;13.63;;;5.60;99.90;;;;;;5051361;28;20295;-73
2021/10/31 06:00:17;;;;;;;15.85;14.18;;;5.60;99.90;;;;;;5049327;28;20511;-73
2021/10/31 06:02:45;;;;;;;19.90;15.15;;;5.60;99.90;;;;;;5050030;28;20518;-73
2021/10/31 06:05:18;;;;;;;18.80;15.15;;;5.60;99.90;;;;;;5049705;28;20422;-73
2021/10/31 06:07:50;;;;;;;16.63;14.82;;;5.50;99.90;;;;;;5049956;28;20059;-74
2021/10/31 06:10:17;;;;;;;17.40;15.05;;;5.50;99.90;;;;;;5038164;28;20060;-74
2021/10/31 06:12:49;;;;;;;16.27;14.05;;;5.60;99.90;;;;;;5029873;28;20509;-73
2021/10/31 06:15:23;;;;;;;16.90;13.30;;;5.50;99.90;;;;;;5053618;28;20056;-74
2021/10/31 06:17:55;;;;;;;16.58;14.55;;;5.50;99.90;;;;;;5037026;28;20049;-74
2021/10/31 06:20:27;;;;;;;15.63;13.32;;;5.50;99.90;;;;;;5031026;28;20513;-74
2021/10/31 06:22:54;;;;;;;14.38;12.60;;;5.50;99.90;;;;;;5049538;28;20045;-73
2021/10/31 06:25:21;;;;;;;25.38;13.75;;;5.50;99.90;;;;;;5046835;28;20045;-73
2021/10/31 06:27:48;;;;;;;21.33;16.10;;;5.50;99.90;;;;;;5049798;28;20102;-73
2021/10/31 06:30:20;;;;;;;32.10;15.38;;;5.60;99.90;;;;;;5049988;28;20037;-74
2021/10/31 06:32:47;;;;;;;21.05;16.30;;;5.60;99.90;;;;;;5049884;28;20419;-73
2021/10/31 06:35:14;;;;;;;32.30;22.48;;;5.60;99.90;;;;;;5049310;28;20068;-74
2021/10/31 06:37:48;;;;;;;24.92;19.15;;;5.50;99.90;;;;;;5033705;28;20041;-74
2021/10/31 06:40:16;;;;;;;25.98;17.05;;;5.50;99.90;;;;;;5049907;28;20045;-74
2021/10/31 06:42:47;;;;;;;21.50;13.87;;;5.50;99.90;;;;;;5050399;28;20507;-74
2021/10/31 06:45:20;;;;;;;21.13;16.98;;;5.50;99.90;;;;;;5049312;28;20049;-75
2021/10/31 06:47:51;;;;;;;21.33;16.13;;;5.50;99.90;;;;;;5031446;28;20045;-75
2021/10/31 06:50:18;;;;;;;23.35;16.88;;;5.50;99.90;;;;;;5033357;28;20559;-74
2021/10/31 06:52:46;;;;;;;16.60;14.20;;;5.50;99.90;;;;;;5050745;28;20041;-74
2021/10/31 06:55:13;;;;;;;12.35;10.25;;;5.50;99.90;;;;;;5048915;28;20565;-74
2021/10/31 06:57:45;;;;;;;12.07;10.73;;;5.50;99.90;;;;;;5025397;28;20044;-74
2021/10/31 07:00:12;;;;;;;12.73;11.40;;;5.60;99.90;;;;;;5039326;28;20041;-73
2021/10/31 07:02:39;;;;;;;9.60;8.45;;;5.60;99.90;;;;;;5035333;28;20419;-74
2021/10/31 07:05:07;;;;;;;10.68;8.95;;;5.60;99.90;;;;;;5014439;28;20095;-74
2021/10/31 07:07:40;;;;;;;12.38;8.55;;;5.70;99.90;;;;;;5043333;28;20045;-74
2021/10/31 07:10:14;;;;;;;9.35;8.13;;;5.80;99.90;;;;;;5049036;28;20400;-74
2021/10/31 07:12:46;;;;;;;9.57;8.30;;;5.90;99.90;;;;;;5052047;28;20040;-74
2021/10/31 07:15:18;;;;;;;9.73;8.73;;;6.00;99.90;;;;;;5052090;28;20518;-74
2021/10/31 07:17:45;;;;;;;9.60;8.23;;;6.10;99.90;;;;;;5038509;28;20111;-74
2021/10/31 07:20:13;;;;;;;10.10;8.60;;;6.10;99.90;;;;;;5030827;28;20048;-74
2021/10/31 07:22:45;;;;;;;11.25;7.68;;;6.10;99.90;;;;;;5048931;28;20052;-74
2021/10/31 07:25:19;;;;;;;10.65;7.55;;;6.20;99.90;;;;;;5040260;28;20347;-73
2021/10/31 07:27:47;;;;;;;12.05;7.80;;;6.30;99.90;;;;;;5031381;28;20057;-74
2021/10/31 07:30:14;;;;;;;12.63;8.27;;;6.40;99.90;;;;;;5040911;28;20541;-74
2021/10/31 07:32:41;;;;;;;11.20;8.50;;;6.60;99.90;;;;;;5050923;28;20045;-73
2021/10/31 07:35:11;;;;;;;9.50;7.97;;;6.70;99.90;;;;;;5041097;28;20041;-73
2021/10/31 07:37:41;;;;;;;10.43;8.10;;;6.80;99.90;;;;;;5052425;28;20036;-74
2021/10/31 07:40:13;;;;;;;8.93;7.65;;;6.90;99.90;;;;;;5053207;28;20037;-73
2021/10/31 07:42:45;;;;;;;10.68;8.25;;;7.10;99.90;;;;;;5037079;28;20041;-74
2021/10/31 07:45:17;;;;;;;7.72;6.93;;;7.20;99.90;;;;;;5037388;28;20396;-74
2021/10/31 07:47:44;;;;;;;7.60;6.18;;;7.20;99.90;;;;;;5037304;28;20045;-73
2021/10/31 07:50:11;;;;;;;8.85;7.25;;;7.30;99.90;;;;;;5047330;28;20053;-73
2021/10/31 07:52:44;;;;;;;7.03;6.20;;;7.30;99.90;;;;;;5016933;28;20064;-73
2021/10/31 07:55:16;;;;;;;8.18;6.45;;;7.40;99.90;;;;;;5034241;28;20052;-74
2021/10/31 07:57:45;;;;;;;8.80;7.45;;;7.40;99.90;;;;;;5032610;28;20045;-73
2021/10/31 08:00:12;;;;;;;10.65;8.00;;;7.50;99.90;;;;;;5051736;28;20091;-74
2021/10/31 08:02:44;;;;;;;12.48;11.18;;;7.60;99.90;;;;;;5034921;28;20049;-73
2021/10/31 08:05:17;;;;;;;13.88;11.00;;;7.60;99.90;;;;;;5035192;28;20048;-73
2021/10/31 08:07:44;;;;;;;12.98;8.43;;;7.70;99.90;;;;;;5050866;28;20048;-73
2021/10/31 08:10:11;;;;;;;9.68;7.60;;;7.80;99.90;;;;;;5034571;28;20053;-73
2021/10/31 08:12:44;;;;;;;16.55;12.82;;;7.90;99.90;;;;;;5050277;28;20033;-74
2021/10/31 08:15:16;;;;;;;22.40;17.05;;;8.00;99.90;;;;;;5034820;28;20045;-74
2021/10/31 08:17:48;;;;;;;13.70;10.73;;;8.10;99.90;;;;;;5031448;28;20053;-74
2021/10/31 08:20:16;;;;;;;12.77;10.57;;;8.20;99.90;;;;;;5030575;28;20540;-74
2021/10/31 08:22:44;;;;;;;13.32;10.43;;;8.30;99.90;;;;;;5031880;28;20578;-73
2021/10/31 08:25:11;;;;;;;11.65;10.13;;;8.40;99.90;;;;;;5030603;28;20116;-73
2021/10/31 08:27:44;;;;;;;11.50;9.88;;;8.50;99.90;;;;;;5031148;28;20492;-73
2021/10/31 08:30:16;;;;;;;16.33;13.13;;;8.60;99.90;;;;;;5039677;28;20049;-73
2021/10/31 08:32:49;;;;;;;15.13;12.32;;;8.60;99.90;;;;;;5050924;28;20228;-73
2021/10/31 08:35:17;;;;;;;11.88;10.60;;;8.70;99.90;;;;;;5050513;28;20083;-73
2021/10/31 08:37:44;;;;;;;14.13;11.68;;;8.70;99.90;;;;;;5050950;28;20041;-74
2021/10/31 08:40:16;;;;;;;15.55;12.30;;;8.80;99.90;;;;;;5051141;28;20044;-73
2021/10/31 08:42:48;;;;;;;18.75;16.85;;;8.90;99.90;;;;;;5035120;28;20049;-73
2021/10/31 08:45:21;;;;;;;17.40;15.60;;;8.90;99.90;;;;;;5050625;28;20546;-73
2021/10/31 08:47:48;;;;;;;19.35;17.45;;;9.00;99.90;;;;;;5050778;28;20053;-73
2021/10/31 08:50:20;;;;;;;14.00;12.70;;;9.10;99.90;;;;;;5035119;28;20045;-74
2021/10/31 08:52:47;;;;;;;11.65;10.20;;;9.20;99.90;;;;;;5050325;28;20055;-74
2021/10/31 08:55:20;;;;;;;9.85;8.85;;;9.30;99.90;;;;;;5050381;28;20049;-73
2021/10/31 08:57:52;;;;;;;10.20;9.10;;;9.40;99.90;;;;;;5035082;28;20049;-74
2021/10/31 09:00:19;;;;;;;12.20;11.00;;;9.50;99.90;;;;;;5051157;28;20041;-74
2021/10/31 09:02:51;;;;;;;11.23;10.07;;;9.60;99.90;;;;;;5035318;28;20041;-74
2021/10/31 09:05:24;;;;;;;11.87;10.67;;;9.70;99.90;;;;;;5050039;28;20418;-73
2021/10/31 09:07:51;;;;;;;9.45;8.30;;;9.90;99.90;;;;;;5034204;28;20518;-74
2021/10/31 09:10:18;;;;;;;9.88;8.48;;;9.90;99.90;;;;;;5034333;28;20056;-74
2021/10/31 09:12:50;;;;;;;10.32;8.52;;;10.00;99.90;;;;;;5035727;28;20048;-73
2021/10/31 09:15:22;;;;;;;9.95;8.13;;;10.20;99.90;;;;;;5052333;28;20041;-74
2021/10/31 09:17:49;;;;;;;9.63;8.57;;;10.30;99.90;;;;;;5051978;28;20056;-73
2021/10/31 09:20:25;;;;;;;10.73;9.07;;;10.40;99.90;;;;;;5052300;28;20037;-73
2021/10/31 09:22:57;;;;;;;10.65;8.57;;;10.50;99.90;;;;;;5051922;28;20040;-73
2021/10/31 09:25:25;;;;;;;11.38;8.52;;;10.60;99.90;;;;;;5049926;28;20144;-74
2021/10/31 09:27:58;;;;;;;8.90;7.38;;;10.70;99.90;;;;;;5050068;28;20056;-74
2021/10/31 09:30:28;;;;;;;10.25;8.65;;;10.90;99.90;;;;;;5050143;28;20048;-74
2021/10/31 09:33:03;;;;;;;9.52;7.65;;;11.00;99.90;;;;;;5050598;28;20491;-74
2021/10/31 09:35:32;;;;;;;8.52;6.78;;;11.10;99.90;;;;;;5049542;28;20103;-73
2021/10/31 09:38:05;;;;;;;7.10;6.13;;;11.30;99.90;;;;;;5049694;28;20045;-74
2021/10/31 09:40:34;;;;;;;7.88;6.35;;;11.40;99.90;;;;;;5049974;28;20056;-74
2021/10/31 09:43:06;;;;;;;7.22;5.85;;;11.50;99.90;;;;;;5033767;28;20049;-74
2021/10/31 09:45:35;;;;;;;8.32;6.53;;;11.60;99.90;;;;;;5049280;28;20048;-74
2021/10/31 09:48:08;;;;;;;7.00;6.20;;;11.70;99.90;;;;;;5048807;28;20044;-73
2021/10/31 09:50:46;;;;;;;7.18;6.32;;;11.90;99.90;;;;;;5047355;28;20049;-74
2021/10/31 09:53:20;;;;;;;8.80;6.28;;;11.90;99.90;;;;;;5047488;28;20523;-74
2021/10/31 09:55:48;;;;;;;7.47;5.78;;;12.00;99.90;;;;;;5047356;28;20495;-74
2021/10/31 09:58:22;;;;;;;6.15;5.18;;;12.10;99.90;;;;;;5048143;28;20068;-74
2021/10/31 10:00:59;;;;;;;7.30;4.53;;;12.20;99.90;;;;;;5045375;28;20049;-74
2021/10/31 10:06:17;;;;;;;3.95;3.42;;;12.40;99.90;;;;;;5040560;28;20056;-74
2021/10/31 10:09:02;;;;;;;5.25;4.22;;;12.60;99.90;;;;;;5022908;28;20045;-74
2021/10/31 10:11:32;;;;;;;6.00;4.60;;;12.80;99.90;;;;;;5036699;28;20424;-74
2021/10/31 10:14:34;;;;;;;4.97;4.28;;;12.90;99.90;;;;;;5037968;28;20037;-73
2021/10/31 10:17:11;;;;;;;5.78;4.75;;;13.00;99.90;;;;;;5037883;28;20039;-74
2021/10/31 10:19:52;;;;;;;7.22;4.55;;;13.10;99.90;;;;;;5037143;28;20045;-74
2021/10/31 10:22:22;;;;;;;7.20;4.70;;;13.20;99.90;;;;;;5023846;28;20060;-73
2021/10/31 10:25:00;;;;;;;4.65;3.95;;;13.30;99.90;;;;;;5022163;28;20107;-74
2021/10/31 10:27:30;;;;;;;7.43;4.77;;;13.40;99.90;;;;;;5019403;28;20519;-74
2021/10/31 10:29:58;;;;;;;5.28;3.97;;;13.50;99.90;;;;;;5037471;28;20296;-74
2021/10/31 10:32:30;;;;;;;4.75;4.20;;;13.60;99.90;;;;;;5021035;28;20082;-74
2021/10/31 10:35:02;;;;;;;5.40;4.47;;;13.60;99.90;;;;;;5036540;28;20045;-74
2021/10/31 10:37:32;;;;;;;4.10;3.55;;;13.60;99.90;;;;;;5037416;28;20527;-74
2021/10/31 10:40:08;;;;;;;4.20;3.80;;;13.70;99.90;;;;;;5036374;28;20029;-74
2021/10/31 10:42:57;;;;;;;3.85;3.47;;;13.80;99.90;;;;;;5037462;28;20425;-74
2021/10/31 10:45:27;;;;;;;5.18;3.95;;;13.80;99.90;;;;;;5035551;28;20052;-74
2021/10/31 10:47:59;;;;;;;4.93;3.78;;;13.90;99.90;;;;;;5049636;28;20052;-74
2021/10/31 10:50:36;;;;;;;4.00;3.42;;;14.00;99.90;;;;;;5044927;28;20425;-73
2021/10/31 10:53:13;;;;;;;5.72;3.42;;;14.10;99.90;;;;;;5045526;28;20048;-74
2021/10/31 10:55:40;;;;;;;5.30;2.80;;;14.20;99.90;;;;;;5047874;28;20041;-74
2021/10/31 10:58:13;;;;;;;3.30;2.55;;;14.20;99.90;;;;;;5048536;28;20135;-74
2021/10/31 11:00:43;;;;;;;2.30;2.05;;;14.40;99.90;;;;;;5043785;28;20052;-74
2021/10/31 11:03:18;;;;;;;4.18;2.22;;;14.50;99.90;;;;;;5043641;28;20045;-74
2021/10/31 11:05:58;;;;;;;2.63;2.30;;;14.50;99.90;;;;;;5075038;28;20037;-74
2021/10/31 11:08:25;;;;;;;3.58;2.42;;;14.60;99.90;;;;;;5048155;28;20045;-74
2021/10/31 11:11:02;;;;;;;3.42;2.75;;;14.70;99.90;;;;;;5042542;28;20069;-75
2021/10/31 11:13:45;;;;;;;4.15;2.35;;;14.90;99.90;;;;;;5048042;28;20045;-74
2021/10/31 11:16:18;;;;;;;3.40;2.60;;;14.90;99.90;;;;;;5050776;28;20041;-74
2021/10/31 11:18:45;;;;;;;3.28;2.28;;;15.00;99.90;;;;;;5050308;28;20395;-74
2021/10/31 11:21:18;;;;;;;2.70;2.40;;;15.20;99.90;;;;;;5023904;28;20041;-74
2021/10/31 11:23:55;;;;;;;2.60;2.00;;;15.30;99.90;;;;;;5032405;28;20053;-74
2021/10/31 11:26:29;;;;;;;2.20;2.00;;;15.30;99.90;;;;;;5035658;28;20056;-74
2021/10/31 11:29:01;;;;;;;3.17;2.08;;;15.40;99.90;;;;;;5050482;28;20037;-74
2021/10/31 11:31:28;;;;;;;2.70;2.20;;;15.50;99.90;;;;;;5049071;28;20045;-74
2021/10/31 11:33:56;;;;;;;2.55;2.10;;;15.60;99.90;;;;;;5024593;28;20045;-74
2021/10/31 11:36:28;;;;;;;2.30;2.00;;;15.70;99.90;;;;;;5024768;28;20041;-74
2021/10/31 11:39:01;;;;;;;2.28;1.90;;;15.70;99.90;;;;;;5033331;28;20053;-75
2021/10/31 11:41:34;;;;;;;4.20;2.00;;;15.80;99.90;;;;;;5038793;28;20041;-74
2021/10/31 11:44:06;;;;;;;2.85;2.13;;;15.80;99.90;;;;;;5046724;28;20048;-74
2021/10/31 11:46:41;;;;;;;3.28;1.90;;;15.80;99.90;;;;;;5039439;28;20045;-74
2021/10/31 11:49:08;;;;;;;2.85;2.28;;;15.90;99.90;;;;;;5032943;28;20048;-74
2021/10/31 11:51:43;;;;;;;4.97;2.00;;;15.90;99.90;;;;;;5025558;28;20045;-74
2021/10/31 11:54:18;;;;;;;2.88;2.20;;;15.90;99.90;;;;;;5024374;28;20338;-75
2021/10/31 11:56:54;;;;;;;3.75;2.13;;;15.90;99.90;;;;;;5045160;28;20044;-74
2021/10/31 11:59:26;;;;;;;3.25;2.17;;;16.10;99.90;;;;;;5026635;28;20043;-74
2021/10/31 12:01:59;;;;;;;2.35;1.80;;;16.20;99.90;;;;;;5022316;28;20064;-74
2021/10/31 12:05:15;;;;;;;2.53;1.75;;;16.20;99.90;;;;;;5039838;28;20049;-75
2021/10/31 12:07:48;;;;;;;4.13;2.08;;;16.20;99.90;;;;;;5040264;28;20045;-75
2021/10/31 12:10:29;;;;;;;2.35;1.70;;;16.30;99.90;;;;;;5041733;28;20049;-75
2021/10/31 12:13:13;;;;;;;2.78;2.00;;;16.40;99.90;;;;;;5048669;28;20988;-74
2021/10/31 12:16:00;;;;;;;2.50;2.05;;;16.60;99.90;;;;;;5035290;28;20064;-74
2021/10/31 12:18:45;;;;;;;2.72;2.03;;;16.70;99.90;;;;;;5035827;28;20068;-74
2021/10/31 12:21:32;;;;;;;4.05;1.70;;;16.70;99.90;;;;;;5035432;28;20136;-75
2021/10/31 12:24:02;;;;;;;4.85;1.95;;;16.80;99.90;;;;;;5049873;28;20053;-75
2021/10/31 12:26:35;;;;;;;4.65;2.40;;;16.90;99.90;;;;;;5051344;28;20053;-74
2021/10/31 12:29:29;;;;;;;4.80;2.03;;;17.10;99.90;;;;;;5051580;28;20503;-75
2021/10/31 12:32:15;;;;;;;2.00;1.80;;;17.20;99.90;;;;;;5049675;28;20152;-74
2021/10/31 12:34:57;;;;;;;3.53;2.17;;;17.30;99.90;;;;;;5051259;28;20048;-75
2021/10/31 12:37:29;;;;;;;2.28;1.95;;;17.30;99.90;;;;;;5051486;28;20045;-75
2021/10/31 12:40:11;;;;;;;4.22;2.30;;;17.40;99.90;;;;;;5051718;28;20115;-75
2021/10/31 12:42:59;;;;;;;3.85;1.90;;;17.50;99.90;;;;;;5046395;28;20045;-75
2021/10/31 12:45:28;;;;;;;2.63;1.90;;;17.60;99.90;;;;;;5024292;28;20045;-75
2021/10/31 12:48:07;;;;;;;2.00;1.77;;;17.70;99.90;;;;;;5050832;28;20490;-75
2021/10/31 12:50:35;;;;;;;3.75;2.80;;;17.70;99.90;;;;;;5047279;28;20045;-74
2021/10/31 12:53:06;;;;;;;2.05;1.83;;;17.80;99.90;;;;;;5046912;28;20041;-75
2021/10/31 12:55:33;;;;;;;3.85;1.80;;;17.80;99.90;;;;;;5058436;28;20403;-74
2021/10/31 12:58:13;;;;;;;3.20;2.13;;;17.90;99.90;;;;;;5042821;28;20055;-75
2021/10/31 13:00:43;;;;;;;2.58;1.75;;;18.00;99.90;;;;;;5036166;28;20049;-74
2021/10/31 13:03:13;;;;;;;2.20;1.77;;;18.00;99.90;;;;;;5022456;28;20060;-74
2021/10/31 13:05:43;;;;;;;3.10;1.80;;;17.90;99.90;;;;;;5041863;28;20119;-75
2021/10/31 13:08:19;;;;;;;2.63;1.83;;;18.00;99.90;;;;;;5027855;28;20041;-74
2021/10/31 13:10:53;;;;;;;3.03;1.92;;;18.00;99.90;;;;;;5057000;28;20802;-74
2021/10/31 13:13:26;;;;;;;2.08;1.85;;;18.00;99.90;;;;;;5049375;28;20053;-75
2021/10/31 13:16:01;;;;;;;4.28;1.85;;;18.00;99.90;;;;;;5051189;28;20048;-74
2021/10/31 13:18:34;;;;;;;2.45;1.85;;;18.10;99.90;;;;;;5049352;28;20041;-74